createdAt,value
2019-02-06T00:00:33.749Z,91.20
2019-02-06T00:03:05.567Z,91.10
2019-02-06T00:05:36.790Z,91.40
2019-02-06T00:08:07.932Z,91.30
2019-02-06T00:10:39.261Z,91.20
2019-02-06T00:13:10.447Z,91.30
2019-02-06T00:15:44.917Z,91.30
2019-02-06T00:18:16.496Z,91.60
2019-02-06T00:20:47.753Z,91.40
2019-02-06T00:23:18.949Z,91.40
2019-02-06T00:25:50.160Z,91.40
2019-02-06T00:28:21.354Z,91.60
2019-02-06T00:30:53.008Z,91.40
2019-02-06T00:33:24.231Z,91.50
2019-02-06T00:35:55.392Z,91.30
2019-02-06T00:38:26.568Z,91.30
2019-02-06T00:40:57.821Z,91.50
2019-02-06T00:43:30.563Z,91.40
2019-02-06T00:46:01.833Z,91.40
2019-02-06T00:48:33.034Z,91.30
2019-02-06T00:51:04.196Z,91.10
2019-02-06T00:53:35.395Z,91.00
2019-02-06T00:56:06.953Z,91.10
2019-02-06T00:58:38.140Z,91.20
2019-02-06T01:01:09.422Z,91.60
2019-02-06T01:03:40.833Z,91.20
2019-02-06T01:06:12.103Z,91.10
2019-02-06T01:08:43.834Z,91.20
2019-02-06T01:11:15.017Z,91.10
2019-02-06T01:13:46.217Z,91.10
2019-02-06T01:16:18.922Z,91.10
2019-02-06T01:18:50.147Z,91.00
2019-02-06T01:21:23.107Z,91.20
2019-02-06T01:23:59.392Z,91.30
2019-02-06T01:26:30.577Z,91.20
2019-02-06T01:29:01.791Z,91.30
2019-02-06T01:31:35.013Z,91.00
2019-02-06T01:34:06.581Z,91.20
2019-02-06T01:36:37.872Z,91.00
2019-02-06T01:39:10.645Z,91.00
2019-02-06T01:41:42.033Z,90.90
2019-02-06T01:44:13.232Z,91.00
2019-02-06T01:46:44.507Z,91.00
2019-02-06T01:49:15.599Z,91.00
2019-02-06T01:51:46.866Z,91.10
2019-02-06T01:54:18.047Z,91.10
2019-02-06T01:56:49.275Z,91.30
2019-02-06T01:59:20.932Z,90.80
2019-02-06T02:01:52.496Z,90.80
2019-02-06T02:04:23.828Z,90.90
2019-02-06T02:06:55.097Z,90.90
2019-02-06T02:09:26.306Z,90.80
2019-02-06T02:11:57.577Z,90.80
2019-02-06T02:14:29.307Z,90.80
2019-02-06T02:17:01.171Z,90.80
2019-02-06T02:19:32.502Z,90.80
2019-02-06T02:22:03.777Z,91.00
2019-02-06T02:24:34.981Z,90.80
2019-02-06T02:27:06.541Z,90.80
2019-02-06T02:29:37.746Z,90.90
2019-02-06T02:32:13.001Z,90.80
2019-02-06T02:34:44.250Z,90.80
2019-02-06T02:37:15.536Z,90.70
2019-02-06T02:39:48.012Z,90.70
2019-02-06T02:42:19.264Z,90.70
2019-02-06T02:44:50.419Z,90.80
2019-02-06T02:47:21.652Z,90.70
2019-02-06T02:49:52.862Z,90.80
2019-02-06T02:52:24.572Z,90.70
2019-02-06T02:54:55.794Z,90.80
2019-02-06T02:57:28.075Z,90.90
2019-02-06T02:59:59.277Z,90.90
2019-02-06T03:02:34.576Z,90.80
2019-02-06T03:08:26.341Z,90.90
2019-02-06T03:10:57.565Z,90.90
2019-02-06T03:13:28.735Z,90.80
2019-02-06T03:15:59.963Z,90.80
2019-02-06T03:18:31.208Z,90.80
2019-02-06T03:21:02.462Z,90.80
2019-02-06T03:23:33.625Z,90.80
2019-02-06T03:26:04.760Z,90.70
2019-02-06T03:28:36.012Z,90.80
2019-02-06T03:31:08.698Z,90.70
2019-02-06T03:33:40.001Z,90.80
2019-02-06T03:36:11.274Z,90.80
2019-02-06T03:38:42.547Z,90.80
2019-02-06T03:41:14.655Z,90.70
2019-02-06T03:43:45.912Z,90.70
2019-02-06T03:46:17.131Z,90.70
2019-02-06T03:48:48.767Z,90.20
2019-02-06T03:51:19.996Z,90.40
2019-02-06T03:53:51.261Z,90.50
2019-02-06T03:56:22.467Z,90.60
2019-02-06T03:58:55.171Z,90.60
2019-02-06T04:01:26.766Z,90.80
2019-02-06T04:03:58.034Z,90.80
2019-02-06T04:06:29.230Z,90.60
2019-02-06T04:09:00.477Z,90.60
2019-02-06T04:11:31.677Z,90.60
2019-02-06T04:14:02.949Z,90.40
2019-02-06T04:16:34.153Z,90.40
2019-02-06T04:19:05.401Z,90.50
2019-02-06T04:21:36.521Z,90.50
2019-02-06T04:24:09.217Z,90.50
2019-02-06T04:26:40.427Z,90.40
2019-02-06T04:29:14.784Z,90.40
2019-02-06T04:31:46.001Z,90.30
2019-02-06T04:34:19.906Z,90.80
2019-02-06T04:36:51.120Z,90.20
2019-02-06T04:39:22.592Z,90.30
2019-02-06T04:41:56.274Z,90.30
2019-02-06T04:44:27.536Z,90.00
2019-02-06T04:47:19.007Z,90.10
2019-02-06T04:49:50.213Z,90.10
2019-02-06T04:52:21.450Z,90.00
2019-02-06T04:54:52.647Z,90.00
2019-02-06T04:57:24.013Z,90.20
2019-02-06T04:59:55.221Z,90.10
2019-02-06T05:02:27.471Z,90.10
2019-02-06T05:04:58.904Z,90.10
2019-02-06T05:07:30.153Z,90.00
2019-02-06T05:10:01.383Z,89.90
2019-02-06T05:12:34.312Z,90.00
2019-02-06T05:15:07.008Z,89.90
2019-02-06T05:17:38.303Z,90.20
2019-02-06T05:20:24.574Z,90.00
2019-02-06T05:22:55.839Z,89.90
2019-02-06T05:25:28.899Z,90.10
2019-02-06T05:28:00.117Z,90.00
2019-02-06T05:30:31.346Z,90.00
2019-02-06T05:33:02.608Z,90.20
2019-02-06T05:35:33.857Z,90.10
2019-02-06T05:38:06.141Z,90.00
2019-02-06T05:40:37.252Z,90.10
2019-02-06T05:43:08.577Z,89.70
2019-02-06T05:49:12.420Z,89.90
2019-02-06T05:51:43.574Z,90.00
2019-02-06T05:54:16.291Z,90.10
2019-02-06T05:56:47.560Z,90.20
2019-02-06T05:59:18.812Z,90.20
2019-02-06T06:01:49.966Z,90.10
2019-02-06T06:04:21.154Z,90.50
2019-02-06T06:09:59.817Z,90.10
2019-02-06T06:12:36.770Z,90.00
2019-02-06T06:15:09.592Z,90.20
2019-02-06T06:17:40.843Z,89.70
2019-02-06T06:20:14.310Z,89.60
2019-02-06T06:22:47.132Z,89.30
2019-02-06T06:25:19.828Z,88.80
2019-02-06T06:27:52.573Z,88.90
2019-02-06T06:30:24.319Z,89.00
2019-02-06T06:33:06.034Z,89.20
2019-02-06T06:35:37.275Z,89.70
2019-02-06T06:38:09.857Z,89.60
2019-02-06T06:40:41.091Z,90.00
2019-02-06T06:43:16.333Z,90.00
2019-02-06T06:45:56.071Z,88.90
2019-02-06T06:48:28.997Z,89.10
2019-02-06T06:51:00.291Z,89.50
2019-02-06T06:53:31.551Z,89.60
2019-02-06T06:56:02.794Z,90.00
2019-02-06T06:58:35.481Z,89.50
2019-02-06T07:01:10.691Z,89.60
2019-02-06T07:03:39.591Z,89.20
2019-02-06T07:06:10.869Z,88.70
2019-02-06T07:08:42.102Z,88.60
2019-02-06T07:11:14.966Z,88.80
2019-02-06T07:13:46.172Z,88.80
2019-02-06T07:16:20.924Z,88.40
2019-02-06T07:18:56.500Z,89.20
2019-02-06T07:21:31.903Z,88.70
2019-02-06T07:41:58.964Z,88.60
2019-02-06T07:44:30.191Z,88.30
2019-02-06T07:47:04.163Z,88.40
2019-02-06T07:49:38.439Z,87.90
2019-02-06T07:52:09.753Z,87.40
2019-02-06T07:54:41.611Z,87.90
2019-02-06T07:57:12.888Z,87.20
2019-02-06T07:59:49.434Z,86.30
2019-02-06T08:02:19.554Z,86.50
2019-02-06T08:04:50.779Z,86.10
2019-02-06T08:07:22.071Z,85.80
2019-02-06T08:09:53.294Z,86.10
2019-02-06T08:12:30.044Z,84.80
2019-02-06T08:15:01.270Z,85.20
2019-02-06T08:17:34.238Z,85.00
2019-02-06T08:20:08.501Z,84.20
2019-02-06T08:25:24.327Z,84.60
2019-02-06T08:27:55.550Z,84.00
2019-02-06T08:30:29.689Z,83.30
2019-02-06T08:33:00.955Z,83.80
2019-02-06T08:35:33.611Z,83.10
2019-02-06T08:38:06.213Z,84.00
2019-02-06T08:40:37.453Z,84.00
2019-02-06T08:43:08.681Z,83.80
2019-02-06T08:45:45.363Z,84.10
2019-02-06T08:48:16.593Z,83.30
2019-02-06T08:50:47.824Z,83.50
2019-02-06T08:53:19.034Z,82.50
2019-02-06T09:13:29.053Z,83.20
2019-02-06T09:16:04.694Z,83.30
2019-02-06T09:18:37.442Z,82.40
2019-02-06T09:21:10.677Z,83.00
2019-02-06T09:29:30.833Z,82.10
2019-02-06T09:32:02.282Z,82.10
2019-02-06T09:34:33.486Z,81.70
2019-02-06T09:37:05.257Z,81.40
2019-02-06T09:39:36.562Z,81.50
2019-02-06T09:42:07.825Z,81.10
2019-02-06T09:44:39.335Z,81.10
2019-02-06T09:50:44.700Z,80.00
2019-02-06T09:53:15.916Z,80.50
2019-02-06T09:55:58.682Z,80.30
2019-02-06T09:58:32.592Z,80.10
2019-02-06T10:13:47.107Z,80.10
2019-02-06T10:16:20.144Z,79.60
2019-02-06T10:18:51.174Z,79.70
2019-02-06T10:21:22.391Z,79.30
2019-02-06T10:23:53.665Z,78.80
2019-02-06T10:26:24.878Z,78.30
2019-02-06T10:28:56.046Z,78.00
2019-02-06T10:31:27.313Z,77.30
2019-02-06T10:33:58.486Z,77.20
2019-02-06T10:36:29.989Z,77.00
2019-02-06T10:39:05.070Z,76.20
2019-02-06T10:41:39.059Z,76.30
2019-02-06T10:44:10.243Z,75.90
2019-02-06T10:46:43.155Z,76.30
2019-02-06T10:49:14.430Z,74.30
2019-02-06T10:51:45.612Z,73.70
2019-02-06T10:57:50.354Z,74.10
2019-02-06T11:03:24.174Z,74.20
2019-02-06T11:13:05.107Z,72.80
2019-02-06T11:16:14.435Z,72.70
2019-02-06T11:18:45.683Z,73.90
2019-02-06T11:21:18.334Z,71.40
2019-02-06T11:23:49.494Z,71.50
2019-02-06T11:26:20.679Z,70.80
2019-02-06T11:28:53.368Z,70.30
2019-02-06T11:41:04.270Z,70.50
2019-02-06T11:43:35.497Z,70.50
2019-02-06T11:46:09.011Z,70.10
2019-02-06T11:51:50.163Z,69.90
2019-02-06T11:54:22.875Z,70.30
2019-02-06T11:56:54.126Z,71.60
2019-02-06T11:59:25.341Z,70.80
2019-02-06T12:01:56.614Z,69.70
2019-02-06T12:04:27.793Z,71.00
2019-02-06T12:06:58.885Z,71.00
2019-02-06T12:09:30.530Z,71.80
2019-02-06T12:12:07.782Z,71.40
2019-02-06T12:18:09.743Z,71.50
2019-02-06T12:20:40.777Z,71.80
2019-02-06T12:23:11.972Z,72.00
2019-02-06T12:25:43.133Z,73.90
2019-02-06T12:28:14.291Z,71.60
2019-02-06T12:30:45.479Z,71.30
2019-02-06T12:33:16.665Z,70.40
2019-02-06T12:35:47.874Z,70.80
2019-02-06T12:38:19.234Z,70.80
2019-02-06T12:40:52.162Z,72.00
2019-02-06T12:43:23.464Z,72.00
2019-02-06T12:45:54.636Z,72.10
2019-02-06T12:48:25.873Z,71.40
2019-02-06T12:50:59.094Z,71.90
2019-02-06T12:53:36.062Z,71.70
2019-02-06T12:56:04.175Z,71.20
2019-02-06T12:58:35.443Z,69.10
2019-02-06T13:01:06.630Z,69.80
2019-02-06T13:03:37.796Z,69.00
2019-02-06T13:13:13.813Z,67.90
2019-02-06T13:15:47.216Z,69.30
2019-02-06T13:18:17.915Z,68.80
2019-02-06T13:20:51.223Z,69.10
2019-02-06T13:23:22.638Z,66.80
2019-02-06T13:25:53.843Z,66.50
2019-02-06T13:28:25.085Z,65.50
2019-02-06T13:30:56.287Z,65.50
2019-02-06T13:33:27.549Z,66.60
2019-02-06T13:35:58.806Z,65.40
2019-02-06T13:38:30.073Z,66.70
2019-02-06T13:41:02.667Z,66.30
2019-02-06T13:46:53.540Z,65.20
2019-02-06T13:49:33.844Z,63.90
2019-02-06T13:52:06.044Z,65.00
2019-02-06T13:54:37.243Z,64.50
2019-02-06T13:57:09.691Z,63.00
2019-02-06T13:59:40.874Z,63.00
2019-02-06T14:02:13.533Z,63.60
2019-02-06T14:11:34.734Z,67.60
2019-02-06T14:14:06.189Z,66.50
2019-02-06T14:16:46.856Z,67.20
2019-02-06T14:19:24.352Z,66.10
2019-02-06T14:21:57.218Z,66.30
2019-02-06T14:24:31.844Z,64.90
2019-02-06T14:27:16.993Z,65.00
2019-02-06T14:30:20.244Z,67.20
2019-02-06T14:33:16.921Z,67.40
2019-02-06T14:36:00.083Z,68.80
2019-02-06T14:38:43.678Z,68.80
2019-02-06T14:41:38.869Z,67.80
2019-02-06T14:44:44.776Z,67.80
2019-02-06T14:47:28.206Z,68.10
2019-02-06T14:50:14.866Z,68.50
2019-02-06T14:52:55.914Z,67.80
2019-02-06T14:55:36.422Z,67.80
2019-02-06T14:58:39.304Z,68.30
2019-02-06T15:01:16.149Z,68.10
2019-02-06T15:04:07.066Z,68.00
2019-02-06T15:06:46.951Z,68.80
2019-02-06T15:09:42.314Z,68.30
2019-02-06T15:12:32.054Z,67.80
2019-02-06T15:15:28.415Z,67.90
2019-02-06T15:18:14.627Z,68.60
2019-02-06T15:20:55.334Z,68.90
2019-02-06T15:23:54.243Z,70.00
2019-02-06T15:26:29.095Z,69.80
2019-02-06T15:29:20.177Z,70.40
2019-02-06T15:32:12.321Z,70.30
2019-02-06T15:35:01.606Z,71.20
2019-02-06T15:37:36.934Z,72.80
2019-02-06T15:40:35.617Z,73.70
2019-02-06T15:43:15.834Z,75.10
2019-02-06T15:45:58.014Z,76.20
2019-02-06T15:48:32.173Z,76.90
2019-02-06T15:51:35.353Z,78.40
2019-02-06T15:54:14.085Z,79.70
2019-02-06T15:57:06.428Z,79.10
2019-02-06T16:00:01.605Z,80.30
2019-02-06T16:02:45.207Z,81.10
2019-02-06T16:05:29.890Z,82.30
2019-02-06T16:08:04.272Z,82.50
2019-02-06T16:11:01.334Z,83.00
2019-02-06T16:13:58.386Z,82.30
2019-02-06T16:17:05.921Z,83.90
2019-02-06T16:20:05.214Z,84.30
2019-02-06T16:22:44.695Z,84.30
2019-02-06T16:25:21.771Z,83.90
2019-02-06T16:28:09.252Z,85.00
2019-02-06T16:31:10.160Z,84.70
2019-02-06T16:34:05.226Z,84.60
2019-02-06T16:36:43.786Z,84.60
2019-02-06T16:39:25.307Z,84.80
2019-02-06T16:42:02.602Z,86.60
2019-02-06T16:44:51.936Z,85.50
2019-02-06T16:47:26.401Z,86.70
2019-02-06T16:50:18.942Z,88.00
2019-02-06T16:53:20.839Z,87.90
2019-02-06T16:55:56.635Z,87.30
2019-02-06T16:58:48.811Z,86.90
2019-02-06T17:01:38.016Z,86.50
2019-02-06T17:04:21.247Z,87.60
2019-02-06T17:06:57.048Z,86.60
2019-02-06T17:09:52.772Z,87.10
2019-02-06T17:12:33.025Z,90.30
2019-02-06T17:15:13.165Z,87.50
2019-02-06T17:18:14.914Z,87.80
2019-02-06T17:21:14.933Z,88.10
2019-02-06T17:23:50.271Z,88.40
2019-02-06T17:26:36.688Z,90.20
2019-02-06T17:29:32.488Z,88.80
2019-02-06T17:32:12.721Z,90.40
2019-02-06T17:34:58.193Z,90.50
2019-02-06T17:37:44.328Z,90.60
2019-02-06T17:40:33.946Z,90.60
2019-02-06T17:43:08.371Z,90.80
2019-02-06T17:45:42.688Z,89.50
2019-02-06T17:48:36.445Z,90.10
2019-02-06T17:51:10.835Z,89.70
2019-02-06T17:53:54.295Z,90.90
2019-02-06T17:56:27.136Z,90.60
2019-02-06T17:58:58.405Z,90.50
2019-02-06T18:01:31.137Z,91.20
2019-02-06T18:04:02.426Z,90.00
2019-02-06T18:06:33.623Z,90.50
2019-02-06T18:09:08.013Z,90.30
2019-02-06T18:11:39.146Z,91.20
2019-02-06T18:14:10.413Z,90.80
2019-02-06T18:16:41.629Z,90.20
2019-02-06T18:19:12.789Z,90.10
2019-02-06T18:21:45.894Z,90.50
2019-02-06T18:24:16.845Z,90.70
2019-02-06T18:26:48.046Z,90.10
2019-02-06T18:29:19.205Z,90.80
2019-02-06T18:31:50.360Z,90.10
2019-02-06T18:34:21.473Z,91.00
2019-02-06T18:36:52.602Z,91.20
2019-02-06T18:39:23.848Z,91.70
2019-02-06T18:41:56.431Z,91.60
2019-02-06T18:44:27.730Z,90.70
2019-02-06T18:47:00.656Z,90.90
2019-02-06T18:49:31.935Z,91.00
2019-02-06T18:52:03.030Z,90.80
2019-02-06T18:54:34.252Z,91.00
2019-02-06T18:57:06.363Z,90.60
2019-02-06T18:59:37.514Z,90.60
2019-02-06T19:02:08.837Z,90.40
2019-02-06T19:04:40.068Z,90.50
2019-02-06T19:07:11.324Z,90.30
2019-02-06T19:09:42.793Z,90.50
2019-02-06T19:12:13.928Z,90.90
2019-02-06T19:14:45.239Z,90.90
2019-02-06T19:17:16.464Z,90.60
2019-02-06T19:19:47.598Z,90.50
2019-02-06T19:22:18.871Z,90.30
2019-02-06T19:24:50.403Z,90.90
2019-02-06T19:27:21.531Z,90.60
2019-02-06T19:29:52.610Z,90.60
2019-02-06T19:32:23.751Z,90.60
2019-02-06T19:34:55.006Z,90.80
2019-02-06T19:37:26.071Z,90.40
2019-02-06T19:39:57.488Z,90.30
2019-02-06T19:42:28.542Z,90.80
2019-02-06T19:44:59.697Z,90.90
2019-02-06T19:47:30.935Z,90.90
2019-02-06T19:50:02.271Z,90.70
2019-02-06T19:52:33.394Z,90.60
2019-02-06T19:55:06.504Z,90.60
2019-02-06T19:57:38.410Z,90.60
2019-02-06T20:00:12.713Z,90.80
2019-02-06T20:02:43.920Z,90.60
2019-02-06T20:05:17.171Z,90.80
2019-02-06T20:07:48.610Z,90.60
2019-02-06T20:10:35.577Z,90.30
2019-02-06T20:13:11.347Z,90.50
2019-02-06T20:15:40.843Z,90.60
2019-02-06T20:18:12.443Z,90.40
2019-02-06T20:20:46.830Z,90.10
2019-02-06T20:23:18.011Z,90.40
2019-02-06T20:25:50.275Z,90.10
2019-02-06T20:28:21.523Z,90.80
2019-02-06T20:30:54.346Z,90.60
2019-02-06T20:33:25.613Z,90.60
2019-02-06T20:35:56.928Z,90.60
2019-02-06T20:38:28.172Z,90.60
2019-02-06T20:40:59.575Z,90.40
2019-02-06T20:43:30.803Z,90.00
2019-02-06T20:46:02.968Z,90.30
2019-02-06T20:48:34.259Z,90.30
2019-02-06T20:51:05.593Z,90.30
2019-02-06T20:53:38.251Z,90.20
2019-02-06T20:56:09.581Z,90.00
2019-02-06T20:58:41.812Z,90.30
2019-02-06T21:01:13.422Z,90.20
2019-02-06T21:03:44.685Z,90.30
2019-02-06T21:06:16.203Z,90.20
2019-02-06T21:08:47.452Z,90.50
2019-02-06T21:11:18.727Z,90.40
2019-02-06T21:13:50.442Z,90.30
2019-02-06T21:16:21.766Z,90.40
2019-02-06T21:18:55.238Z,90.50
2019-02-06T21:22:02.574Z,91.20
2019-02-06T21:24:33.861Z,92.20
2019-02-06T21:27:05.234Z,91.90
2019-02-06T21:29:36.449Z,92.00
2019-02-06T21:32:07.688Z,91.40
2019-02-06T21:34:38.790Z,91.40
2019-02-06T21:37:10.022Z,91.40
2019-02-06T21:39:41.240Z,90.70
2019-02-06T21:42:12.522Z,90.80
2019-02-06T21:44:43.750Z,91.40
2019-02-06T21:47:15.407Z,90.70
2019-02-06T21:49:46.646Z,90.90
2019-02-06T21:52:17.841Z,91.20
2019-02-06T21:54:49.041Z,91.30
2019-02-06T21:57:20.276Z,90.70
2019-02-06T21:59:51.855Z,90.90
2019-02-06T22:02:23.142Z,90.80
2019-02-06T22:04:54.297Z,91.00
2019-02-06T22:07:25.513Z,90.60
2019-02-06T22:09:56.734Z,90.40
2019-02-06T22:12:28.193Z,90.80
2019-02-06T22:14:59.452Z,90.60
2019-02-06T22:17:30.613Z,90.80
2019-02-06T22:20:01.806Z,90.80
2019-02-06T22:22:33.960Z,90.70
2019-02-06T22:25:07.348Z,90.50
2019-02-06T22:27:38.687Z,90.80
2019-02-06T22:30:18.262Z,90.80
2019-02-06T22:32:50.437Z,90.60
2019-02-06T22:35:21.729Z,90.40
2019-02-06T22:37:52.944Z,90.70
2019-02-06T22:40:25.884Z,90.80
2019-02-06T22:42:58.083Z,90.50
2019-02-06T22:45:31.550Z,90.50
2019-02-06T22:48:04.103Z,90.50
2019-02-06T22:50:35.187Z,90.20
2019-02-06T22:53:06.297Z,90.30
2019-02-06T22:55:37.422Z,90.20
2019-02-06T22:58:08.607Z,90.20
2019-02-06T23:01:11.187Z,90.10
2019-02-06T23:03:42.350Z,90.00
2019-02-06T23:06:13.670Z,90.00
2019-02-06T23:08:45.313Z,90.00
2019-02-06T23:11:16.555Z,90.00
2019-02-06T23:13:48.629Z,90.20
2019-02-06T23:16:21.278Z,90.30
2019-02-06T23:18:52.554Z,90.00
2019-02-06T23:21:25.600Z,90.10
2019-02-06T23:23:56.793Z,90.40
2019-02-06T23:26:28.017Z,90.10
2019-02-06T23:28:59.275Z,89.80
2019-02-06T23:31:30.483Z,89.90
2019-02-06T23:34:01.735Z,89.60
2019-02-06T23:36:32.962Z,89.70
2019-02-06T23:39:05.228Z,89.40
2019-02-06T23:41:37.880Z,89.60
2019-02-06T23:44:09.051Z,89.00
2019-02-06T23:46:40.200Z,89.60
2019-02-06T23:49:11.394Z,89.50
2019-02-06T23:51:42.622Z,88.90
2019-02-06T23:54:13.808Z,88.30
2019-02-06T23:56:45.034Z,88.70
2019-02-06T23:59:16.615Z,88.40
